sensor_id;sensor_type;location;lat;lon;timestamp;P1;durP1;ratioP1;P2;durP2;ratioP2
37047;SDS011;23227;48.780;9.210;2023-08-06T00:02:21;1.38;;;1.00;;
37047;SDS011;23227;48.780;9.210;2023-08-06T00:05:24;1.50;;;1.05;;
37047;SDS011;23227;48.780;9.210;2023-08-06T00:08:26;1.17;;;1.08;;
37047;SDS011;23227;48.780;9.210;2023-08-06T00:11:30;2.35;;;1.30;;
37047;SDS011;23227;48.780;9.210;2023-08-06T00:14:33;2.17;;;1.43;;
37047;SDS011;23227;48.780;9.210;2023-08-06T00:17:35;1.90;;;1.05;;
37047;SDS011;23227;48.780;9.210;2023-08-06T00:23:41;1.30;;;0.82;;
37047;SDS011;23227;48.780;9.210;2023-08-06T00:26:45;1.27;;;1.15;;
37047;SDS011;23227;48.780;9.210;2023-08-06T00:29:48;2.60;;;1.30;;
37047;SDS011;23227;48.780;9.210;2023-08-06T00:32:50;1.38;;;1.00;;
37047;SDS011;23227;48.780;9.210;2023-08-06T00:35:53;2.00;;;1.00;;
37047;SDS011;23227;48.780;9.210;2023-08-06T00:38:55;1.88;;;1.05;;
37047;SDS011;23227;48.780;9.210;2023-08-06T00:41:59;1.23;;;1.13;;
37047;SDS011;23227;48.780;9.210;2023-08-06T00:45:02;1.20;;;1.00;;
37047;SDS011;23227;48.780;9.210;2023-08-06T00:48:05;1.63;;;1.20;;
37047;SDS011;23227;48.780;9.210;2023-08-06T00:51:08;1.85;;;1.45;;
37047;SDS011;23227;48.780;9.210;2023-08-06T00:54:12;1.55;;;1.23;;
37047;SDS011;23227;48.780;9.210;2023-08-06T00:57:15;2.25;;;1.05;;
37047;SDS011;23227;48.780;9.210;2023-08-06T01:00:19;1.90;;;1.10;;
37047;SDS011;23227;48.780;9.210;2023-08-06T01:03:22;1.92;;;1.20;;
37047;SDS011;23227;48.780;9.210;2023-08-06T01:06:29;1.35;;;1.00;;
37047;SDS011;23227;48.780;9.210;2023-08-06T01:09:40;1.00;;;0.75;;
37047;SDS011;23227;48.780;9.210;2023-08-06T01:12:50;1.60;;;1.17;;
37047;SDS011;23227;48.780;9.210;2023-08-06T01:15:56;1.10;;;0.97;;
37047;SDS011;23227;48.780;9.210;2023-08-06T01:19:00;1.00;;;0.80;;
37047;SDS011;23227;48.780;9.210;2023-08-06T01:22:04;1.25;;;1.05;;
37047;SDS011;23227;48.780;9.210;2023-08-06T01:25:07;3.33;;;1.07;;
37047;SDS011;23227;48.780;9.210;2023-08-06T01:31:14;0.77;;;0.70;;
37047;SDS011;23227;48.780;9.210;2023-08-06T01:34:20;1.20;;;0.90;;
37047;SDS011;23227;48.780;9.210;2023-08-06T01:37:25;3.23;;;1.10;;
37047;SDS011;23227;48.780;9.210;2023-08-06T01:40:27;1.73;;;0.73;;
37047;SDS011;23227;48.780;9.210;2023-08-06T01:43:31;1.00;;;0.80;;
37047;SDS011;23227;48.780;9.210;2023-08-06T01:46:33;1.02;;;0.90;;
37047;SDS011;23227;48.780;9.210;2023-08-06T01:49:36;1.17;;;0.82;;
37047;SDS011;23227;48.780;9.210;2023-08-06T01:52:40;2.95;;;1.00;;
37047;SDS011;23227;48.780;9.210;2023-08-06T01:55:47;1.37;;;0.70;;
37047;SDS011;23227;48.780;9.210;2023-08-06T01:58:50;0.90;;;0.80;;
37047;SDS011;23227;48.780;9.210;2023-08-06T02:01:52;0.82;;;0.70;;
37047;SDS011;23227;48.780;9.210;2023-08-06T02:04:55;1.10;;;1.00;;
37047;SDS011;23227;48.780;9.210;2023-08-06T02:08:01;1.02;;;0.77;;
37047;SDS011;23227;48.780;9.210;2023-08-06T02:11:03;0.77;;;0.77;;
37047;SDS011;23227;48.780;9.210;2023-08-06T02:14:06;1.42;;;0.95;;
37047;SDS011;23227;48.780;9.210;2023-08-06T02:17:08;1.10;;;0.88;;
37047;SDS011;23227;48.780;9.210;2023-08-06T02:20:11;0.95;;;0.70;;
37047;SDS011;23227;48.780;9.210;2023-08-06T02:23:15;1.33;;;0.93;;
37047;SDS011;23227;48.780;9.210;2023-08-06T02:26:17;1.40;;;0.90;;
37047;SDS011;23227;48.780;9.210;2023-08-06T02:29:20;1.30;;;0.90;;
37047;SDS011;23227;48.780;9.210;2023-08-06T02:32:22;0.93;;;0.75;;
37047;SDS011;23227;48.780;9.210;2023-08-06T02:35:25;1.63;;;1.00;;
37047;SDS011;23227;48.780;9.210;2023-08-06T02:38:32;0.93;;;0.80;;
37047;SDS011;23227;48.780;9.210;2023-08-06T02:41:35;1.60;;;0.97;;
37047;SDS011;23227;48.780;9.210;2023-08-06T02:44:38;1.40;;;1.00;;
37047;SDS011;23227;48.780;9.210;2023-08-06T02:47:40;1.38;;;0.93;;
37047;SDS011;23227;48.780;9.210;2023-08-06T02:50:43;0.93;;;0.80;;
37047;SDS011;23227;48.780;9.210;2023-08-06T02:53:48;1.02;;;0.93;;
37047;SDS011;23227;48.780;9.210;2023-08-06T02:56:51;1.93;;;0.83;;
37047;SDS011;23227;48.780;9.210;2023-08-06T02:59:54;1.23;;;0.88;;
37047;SDS011;23227;48.780;9.210;2023-08-06T03:02:56;0.95;;;0.88;;
37047;SDS011;23227;48.780;9.210;2023-08-06T03:05:59;0.98;;;0.90;;
37047;SDS011;23227;48.780;9.210;2023-08-06T03:12:06;1.63;;;1.10;;
37047;SDS011;23227;48.780;9.210;2023-08-06T03:15:09;1.23;;;0.90;;
37047;SDS011;23227;48.780;9.210;2023-08-06T03:21:14;2.92;;;0.93;;
37047;SDS011;23227;48.780;9.210;2023-08-06T03:24:18;1.95;;;1.05;;
37047;SDS011;23227;48.780;9.210;2023-08-06T03:27:21;1.00;;;0.73;;
37047;SDS011;23227;48.780;9.210;2023-08-06T03:30:23;1.58;;;0.95;;
37047;SDS011;23227;48.780;9.210;2023-08-06T03:33:26;1.40;;;0.82;;
37047;SDS011;23227;48.780;9.210;2023-08-06T03:36:29;1.15;;;0.85;;
37047;SDS011;23227;48.780;9.210;2023-08-06T03:42:35;0.90;;;0.80;;
37047;SDS011;23227;48.780;9.210;2023-08-06T03:45:38;1.42;;;0.88;;
37047;SDS011;23227;48.780;9.210;2023-08-06T03:48:40;1.95;;;0.90;;
37047;SDS011;23227;48.780;9.210;2023-08-06T03:51:43;1.02;;;0.80;;
37047;SDS011;23227;48.780;9.210;2023-08-06T03:54:47;1.35;;;0.85;;
37047;SDS011;23227;48.780;9.210;2023-08-06T03:57:49;1.37;;;1.00;;
37047;SDS011;23227;48.780;9.210;2023-08-06T04:00:57;1.33;;;0.80;;
37047;SDS011;23227;48.780;9.210;2023-08-06T04:04:01;1.48;;;0.90;;
37047;SDS011;23227;48.780;9.210;2023-08-06T04:07:03;0.93;;;0.75;;
37047;SDS011;23227;48.780;9.210;2023-08-06T04:10:08;1.00;;;0.90;;
37047;SDS011;23227;48.780;9.210;2023-08-06T04:13:11;1.67;;;0.83;;
37047;SDS011;23227;48.780;9.210;2023-08-06T04:16:13;0.75;;;0.73;;
37047;SDS011;23227;48.780;9.210;2023-08-06T04:19:16;1.30;;;0.90;;
37047;SDS011;23227;48.780;9.210;2023-08-06T04:22:19;0.95;;;0.70;;
37047;SDS011;23227;48.780;9.210;2023-08-06T04:25:23;1.20;;;0.90;;
37047;SDS011;23227;48.780;9.210;2023-08-06T04:28:26;1.30;;;0.90;;
37047;SDS011;23227;48.780;9.210;2023-08-06T04:31:29;0.90;;;0.68;;
37047;SDS011;23227;48.780;9.210;2023-08-06T04:34:31;1.13;;;0.98;;
37047;SDS011;23227;48.780;9.210;2023-08-06T04:37:34;0.70;;;0.70;;
37047;SDS011;23227;48.780;9.210;2023-08-06T04:40:38;2.53;;;0.75;;
37047;SDS011;23227;48.780;9.210;2023-08-06T04:43:41;0.77;;;0.70;;
37047;SDS011;23227;48.780;9.210;2023-08-06T04:46:43;1.75;;;0.90;;
37047;SDS011;23227;48.780;9.210;2023-08-06T04:49:46;0.80;;;0.75;;
37047;SDS011;23227;48.780;9.210;2023-08-06T04:52:48;0.82;;;0.70;;
37047;SDS011;23227;48.780;9.210;2023-08-06T04:55:52;0.95;;;0.77;;
37047;SDS011;23227;48.780;9.210;2023-08-06T04:58:55;1.13;;;0.73;;
37047;SDS011;23227;48.780;9.210;2023-08-06T05:01:57;0.70;;;0.70;;
37047;SDS011;23227;48.780;9.210;2023-08-06T05:05:00;0.95;;;0.80;;
37047;SDS011;23227;48.780;9.210;2023-08-06T05:08:03;0.93;;;0.57;;
37047;SDS011;23227;48.780;9.210;2023-08-06T05:11:07;1.33;;;0.88;;
37047;SDS011;23227;48.780;9.210;2023-08-06T05:14:09;2.13;;;0.80;;
37047;SDS011;23227;48.780;9.210;2023-08-06T05:17:12;0.65;;;0.57;;
37047;SDS011;23227;48.780;9.210;2023-08-06T05:20:14;0.90;;;0.70;;
37047;SDS011;23227;48.780;9.210;2023-08-06T05:23:18;1.00;;;0.77;;
37047;SDS011;23227;48.780;9.210;2023-08-06T05:26:22;3.25;;;0.60;;
37047;SDS011;23227;48.780;9.210;2023-08-06T05:29:25;0.97;;;0.60;;
37047;SDS011;23227;48.780;9.210;2023-08-06T05:32:28;0.90;;;0.80;;
37047;SDS011;23227;48.780;9.210;2023-08-06T05:35:31;1.67;;;0.75;;
37047;SDS011;23227;48.780;9.210;2023-08-06T05:38:33;0.63;;;0.63;;
37047;SDS011;23227;48.780;9.210;2023-08-06T05:41:37;0.93;;;0.50;;
37047;SDS011;23227;48.780;9.210;2023-08-06T05:44:40;1.63;;;0.93;;
37047;SDS011;23227;48.780;9.210;2023-08-06T05:47:42;0.90;;;0.60;;
37047;SDS011;23227;48.780;9.210;2023-08-06T05:50:45;2.30;;;0.80;;
37047;SDS011;23227;48.780;9.210;2023-08-06T05:53:47;1.15;;;0.90;;
37047;SDS011;23227;48.780;9.210;2023-08-06T05:56:53;1.50;;;0.90;;
37047;SDS011;23227;48.780;9.210;2023-08-06T05:59:55;1.70;;;0.60;;
37047;SDS011;23227;48.780;9.210;2023-08-06T06:02:58;2.78;;;0.70;;
37047;SDS011;23227;48.780;9.210;2023-08-06T06:06:00;4.45;;;0.88;;
37047;SDS011;23227;48.780;9.210;2023-08-06T06:09:03;1.20;;;0.82;;
37047;SDS011;23227;48.780;9.210;2023-08-06T06:12:07;1.55;;;0.77;;
37047;SDS011;23227;48.780;9.210;2023-08-06T06:15:10;10.27;;;1.00;;
37047;SDS011;23227;48.780;9.210;2023-08-06T06:18:13;1.25;;;0.50;;
37047;SDS011;23227;48.780;9.210;2023-08-06T06:21:16;2.42;;;0.50;;
37047;SDS011;23227;48.780;9.210;2023-08-06T06:24:18;2.70;;;0.60;;
37047;SDS011;23227;48.780;9.210;2023-08-06T06:27:22;6.47;;;0.38;;
37047;SDS011;23227;48.780;9.210;2023-08-06T06:30:25;4.20;;;0.57;;
37047;SDS011;23227;48.780;9.210;2023-08-06T06:33:27;1.00;;;0.55;;
37047;SDS011;23227;48.780;9.210;2023-08-06T06:36:30;1.17;;;0.50;;
37047;SDS011;23227;48.780;9.210;2023-08-06T06:39:33;2.78;;;0.70;;
37047;SDS011;23227;48.780;9.210;2023-08-06T06:42:37;0.88;;;0.30;;
37047;SDS011;23227;48.780;9.210;2023-08-06T06:45:39;0.50;;;0.40;;
37047;SDS011;23227;48.780;9.210;2023-08-06T06:48:42;0.70;;;0.40;;
37047;SDS011;23227;48.780;9.210;2023-08-06T06:51:44;2.67;;;0.45;;
37047;SDS011;23227;48.780;9.210;2023-08-06T06:54:47;1.90;;;0.40;;
37047;SDS011;23227;48.780;9.210;2023-08-06T06:57:51;1.15;;;0.30;;
37047;SDS011;23227;48.780;9.210;2023-08-06T07:00:53;1.70;;;0.60;;
37047;SDS011;23227;48.780;9.210;2023-08-06T07:03:56;0.35;;;0.22;;
37047;SDS011;23227;48.780;9.210;2023-08-06T07:06:59;2.00;;;0.30;;
37047;SDS011;23227;48.780;9.210;2023-08-06T07:10:01;2.00;;;0.40;;
37047;SDS011;23227;48.780;9.210;2023-08-06T07:13:06;2.55;;;0.28;;
37047;SDS011;23227;48.780;9.210;2023-08-06T07:16:08;1.33;;;0.40;;
37047;SDS011;23227;48.780;9.210;2023-08-06T07:19:12;0.80;;;0.53;;
37047;SDS011;23227;48.780;9.210;2023-08-06T07:22:14;2.17;;;0.40;;
37047;SDS011;23227;48.780;9.210;2023-08-06T07:25:17;0.60;;;0.20;;
37047;SDS011;23227;48.780;9.210;2023-08-06T07:28:22;1.37;;;0.47;;
37047;SDS011;23227;48.780;9.210;2023-08-06T07:31:24;1.60;;;0.40;;
37047;SDS011;23227;48.780;9.210;2023-08-06T07:34:27;3.00;;;0.10;;
37047;SDS011;23227;48.780;9.210;2023-08-06T07:37:30;0.40;;;0.20;;
37047;SDS011;23227;48.780;9.210;2023-08-06T07:40:35;0.20;;;0.15;;
37047;SDS011;23227;48.780;9.210;2023-08-06T07:43:39;0.93;;;0.20;;
37047;SDS011;23227;48.780;9.210;2023-08-06T07:46:43;2.13;;;0.63;;
37047;SDS011;23227;48.780;9.210;2023-08-06T07:49:46;2.72;;;0.50;;
37047;SDS011;23227;48.780;9.210;2023-08-06T07:52:49;3.55;;;0.35;;
37047;SDS011;23227;48.780;9.210;2023-08-06T07:55:52;0.90;;;0.38;;
37047;SDS011;23227;48.780;9.210;2023-08-06T07:58:56;0.67;;;0.30;;
37047;SDS011;23227;48.780;9.210;2023-08-06T08:01:59;1.40;;;0.30;;
37047;SDS011;23227;48.780;9.210;2023-08-06T08:05:02;8.97;;;1.03;;
37047;SDS011;23227;48.780;9.210;2023-08-06T08:11:08;3.60;;;0.80;;
37047;SDS011;23227;48.780;9.210;2023-08-06T08:14:12;0.45;;;0.20;;
37047;SDS011;23227;48.780;9.210;2023-08-06T08:17:15;5.10;;;0.93;;
37047;SDS011;23227;48.780;9.210;2023-08-06T08:20:17;1.38;;;0.30;;
37047;SDS011;23227;48.780;9.210;2023-08-06T08:23:20;0.75;;;0.10;;
37047;SDS011;23227;48.780;9.210;2023-08-06T08:26:23;11.60;;;2.00;;
37047;SDS011;23227;48.780;9.210;2023-08-06T08:29:27;9.10;;;1.17;;
37047;SDS011;23227;48.780;9.210;2023-08-06T08:32:29;3.03;;;0.93;;
37047;SDS011;23227;48.780;9.210;2023-08-06T08:35:32;5.75;;;0.88;;
37047;SDS011;23227;48.780;9.210;2023-08-06T08:38:35;2.45;;;0.60;;
37047;SDS011;23227;48.780;9.210;2023-08-06T08:41:37;3.15;;;0.70;;
37047;SDS011;23227;48.780;9.210;2023-08-06T08:44:41;2.25;;;0.30;;
37047;SDS011;23227;48.780;9.210;2023-08-06T08:47:44;0.33;;;0.20;;
37047;SDS011;23227;48.780;9.210;2023-08-06T08:50:49;7.07;;;0.37;;
37047;SDS011;23227;48.780;9.210;2023-08-06T08:53:52;0.20;;;0.20;;
37047;SDS011;23227;48.780;9.210;2023-08-06T08:56:57;0.73;;;0.30;;
37047;SDS011;23227;48.780;9.210;2023-08-06T09:00:01;0.25;;;0.17;;
37047;SDS011;23227;48.780;9.210;2023-08-06T09:03:05;0.30;;;0.20;;
37047;SDS011;23227;48.780;9.210;2023-08-06T09:06:08;5.90;;;0.47;;
37047;SDS011;23227;48.780;9.210;2023-08-06T09:09:13;4.77;;;0.50;;
37047;SDS011;23227;48.780;9.210;2023-08-06T09:12:19;3.80;;;0.40;;
37047;SDS011;23227;48.780;9.210;2023-08-06T09:15:24;2.00;;;0.30;;
37047;SDS011;23227;48.780;9.210;2023-08-06T09:18:27;3.17;;;0.30;;
37047;SDS011;23227;48.780;9.210;2023-08-06T09:21:31;3.03;;;0.10;;
37047;SDS011;23227;48.780;9.210;2023-08-06T09:24:34;1.08;;;0.10;;
37047;SDS011;23227;48.780;9.210;2023-08-06T09:27:40;0.27;;;0.10;;
37047;SDS011;23227;48.780;9.210;2023-08-06T09:30:50;0.17;;;0.10;;
37047;SDS011;23227;48.780;9.210;2023-08-06T09:33:53;1.80;;;0.10;;
37047;SDS011;23227;48.780;9.210;2023-08-06T09:36:55;0.70;;;0.10;;
37047;SDS011;23227;48.780;9.210;2023-08-06T09:39:58;0.77;;;0.10;;
37047;SDS011;23227;48.780;9.210;2023-08-06T09:43:00;0.10;;;0.10;;
37047;SDS011;23227;48.780;9.210;2023-08-06T09:46:11;0.63;;;0.00;;
37047;SDS011;23227;48.780;9.210;2023-08-06T09:49:17;0.40;;;0.20;;
37047;SDS011;23227;48.780;9.210;2023-08-06T09:52:23;0.30;;;0.20;;
37047;SDS011;23227;48.780;9.210;2023-08-06T09:55:26;0.10;;;0.10;;
37047;SDS011;23227;48.780;9.210;2023-08-06T09:58:32;0.17;;;0.17;;
37047;SDS011;23227;48.780;9.210;2023-08-06T10:01:36;0.28;;;0.20;;
37047;SDS011;23227;48.780;9.210;2023-08-06T10:04:39;0.40;;;0.30;;
37047;SDS011;23227;48.780;9.210;2023-08-06T10:07:43;1.60;;;0.20;;
37047;SDS011;23227;48.780;9.210;2023-08-06T10:13:48;0.20;;;0.10;;
37047;SDS011;23227;48.780;9.210;2023-08-06T10:16:53;4.30;;;0.40;;
37047;SDS011;23227;48.780;9.210;2023-08-06T10:19:56;4.47;;;0.87;;
37047;SDS011;23227;48.780;9.210;2023-08-06T10:23:00;7.43;;;0.45;;
37047;SDS011;23227;48.780;9.210;2023-08-06T10:26:27;1.43;;;0.30;;
37047;SDS011;23227;48.780;9.210;2023-08-06T10:29:35;3.40;;;0.20;;
37047;SDS011;23227;48.780;9.210;2023-08-06T10:32:49;3.10;;;0.30;;
37047;SDS011;23227;48.780;9.210;2023-08-06T10:35:52;1.67;;;0.20;;
37047;SDS011;23227;48.780;9.210;2023-08-06T10:39:06;0.70;;;0.37;;
37047;SDS011;23227;48.780;9.210;2023-08-06T10:42:21;1.20;;;0.27;;
37047;SDS011;23227;48.780;9.210;2023-08-06T10:45:24;1.13;;;0.40;;
37047;SDS011;23227;48.780;9.210;2023-08-06T10:48:32;1.23;;;0.30;;
37047;SDS011;23227;48.780;9.210;2023-08-06T10:51:37;4.23;;;0.40;;
37047;SDS011;23227;48.780;9.210;2023-08-06T10:54:40;2.28;;;0.30;;
37047;SDS011;23227;48.780;9.210;2023-08-06T10:57:42;0.63;;;0.10;;
37047;SDS011;23227;48.780;9.210;2023-08-06T11:00:45;4.63;;;0.40;;
37047;SDS011;23227;48.780;9.210;2023-08-06T11:03:49;4.65;;;0.75;;
37047;SDS011;23227;48.780;9.210;2023-08-06T11:06:54;2.27;;;0.33;;
37047;SDS011;23227;48.780;9.210;2023-08-06T11:10:00;1.75;;;0.75;;
37047;SDS011;23227;48.780;9.210;2023-08-06T11:13:04;1.53;;;0.20;;
37047;SDS011;23227;48.780;9.210;2023-08-06T11:16:08;3.17;;;0.70;;
37047;SDS011;23227;48.780;9.210;2023-08-06T11:19:13;0.70;;;0.30;;
37047;SDS011;23227;48.780;9.210;2023-08-06T11:22:17;1.40;;;0.50;;
37047;SDS011;23227;48.780;9.210;2023-08-06T11:28:23;3.15;;;0.20;;
37047;SDS011;23227;48.780;9.210;2023-08-06T11:31:25;0.68;;;0.38;;
37047;SDS011;23227;48.780;9.210;2023-08-06T11:34:29;1.17;;;0.40;;
37047;SDS011;23227;48.780;9.210;2023-08-06T11:37:32;1.43;;;0.20;;
37047;SDS011;23227;48.780;9.210;2023-08-06T11:43:38;1.57;;;0.10;;
37047;SDS011;23227;48.780;9.210;2023-08-06T11:46:49;1.92;;;0.30;;
37047;SDS011;23227;48.780;9.210;2023-08-06T11:49:57;2.57;;;0.30;;
37047;SDS011;23227;48.780;9.210;2023-08-06T11:53:00;1.77;;;0.30;;
37047;SDS011;23227;48.780;9.210;2023-08-06T11:56:04;3.80;;;0.60;;
37047;SDS011;23227;48.780;9.210;2023-08-06T11:59:07;0.43;;;0.20;;
37047;SDS011;23227;48.780;9.210;2023-08-06T12:02:11;1.10;;;0.10;;
37047;SDS011;23227;48.780;9.210;2023-08-06T12:05:16;0.98;;;0.50;;
37047;SDS011;23227;48.780;9.210;2023-08-06T12:08:19;1.93;;;0.50;;
37047;SDS011;23227;48.780;9.210;2023-08-06T12:11:22;1.05;;;0.50;;
37047;SDS011;23227;48.780;9.210;2023-08-06T12:14:27;2.00;;;0.47;;
37047;SDS011;23227;48.780;9.210;2023-08-06T12:17:29;3.05;;;0.50;;
37047;SDS011;23227;48.780;9.210;2023-08-06T12:20:34;2.50;;;0.40;;
37047;SDS011;23227;48.780;9.210;2023-08-06T12:23:36;1.43;;;0.40;;
37047;SDS011;23227;48.780;9.210;2023-08-06T12:26:39;0.90;;;0.40;;
37047;SDS011;23227;48.780;9.210;2023-08-06T12:32:45;2.03;;;0.70;;
37047;SDS011;23227;48.780;9.210;2023-08-06T12:35:49;4.55;;;1.15;;
37047;SDS011;23227;48.780;9.210;2023-08-06T12:38:51;3.60;;;0.57;;
37047;SDS011;23227;48.780;9.210;2023-08-06T12:41:54;3.63;;;0.55;;
37047;SDS011;23227;48.780;9.210;2023-08-06T12:45:09;1.83;;;0.57;;
37047;SDS011;23227;48.780;9.210;2023-08-06T12:48:12;5.18;;;0.60;;
37047;SDS011;23227;48.780;9.210;2023-08-06T12:51:16;6.20;;;0.70;;
37047;SDS011;23227;48.780;9.210;2023-08-06T12:54:19;3.53;;;0.40;;
37047;SDS011;23227;48.780;9.210;2023-08-06T12:57:22;5.80;;;0.90;;
37047;SDS011;23227;48.780;9.210;2023-08-06T13:00:31;11.00;;;1.27;;
37047;SDS011;23227;48.780;9.210;2023-08-06T13:03:35;6.60;;;1.17;;
37047;SDS011;23227;48.780;9.210;2023-08-06T13:06:39;6.22;;;0.88;;
37047;SDS011;23227;48.780;9.210;2023-08-06T13:09:42;16.13;;;1.37;;
37047;SDS011;23227;48.780;9.210;2023-08-06T13:12:45;17.50;;;1.00;;
37047;SDS011;23227;48.780;9.210;2023-08-06T13:15:48;12.57;;;1.07;;
37047;SDS011;23227;48.780;9.210;2023-08-06T13:18:51;41.67;;;1.63;;
37047;SDS011;23227;48.780;9.210;2023-08-06T13:22:01;11.60;;;1.20;;
37047;SDS011;23227;48.780;9.210;2023-08-06T13:25:06;8.02;;;1.15;;
37047;SDS011;23227;48.780;9.210;2023-08-06T13:31:11;11.37;;;0.90;;
37047;SDS011;23227;48.780;9.210;2023-08-06T13:34:14;10.70;;;1.45;;
37047;SDS011;23227;48.780;9.210;2023-08-06T13:37:19;8.95;;;1.48;;
37047;SDS011;23227;48.780;9.210;2023-08-06T13:40:22;15.23;;;1.70;;
37047;SDS011;23227;48.780;9.210;2023-08-06T13:43:24;8.80;;;1.80;;
37047;SDS011;23227;48.780;9.210;2023-08-06T13:46:27;6.30;;;1.57;;
37047;SDS011;23227;48.780;9.210;2023-08-06T13:49:30;7.38;;;1.67;;
37047;SDS011;23227;48.780;9.210;2023-08-06T13:55:37;18.80;;;1.73;;
37047;SDS011;23227;48.780;9.210;2023-08-06T14:01:43;10.38;;;1.55;;
37047;SDS011;23227;48.780;9.210;2023-08-06T14:04:53;9.37;;;1.77;;
37047;SDS011;23227;48.780;9.210;2023-08-06T14:07:57;5.60;;;1.33;;
37047;SDS011;23227;48.780;9.210;2023-08-06T14:10:59;9.93;;;1.30;;
37047;SDS011;23227;48.780;9.210;2023-08-06T14:14:03;6.40;;;1.13;;
37047;SDS011;23227;48.780;9.210;2023-08-06T14:17:05;7.00;;;0.88;;
37047;SDS011;23227;48.780;9.210;2023-08-06T14:20:08;5.97;;;1.27;;
37047;SDS011;23227;48.780;9.210;2023-08-06T14:23:14;7.10;;;0.93;;
37047;SDS011;23227;48.780;9.210;2023-08-06T14:26:17;3.70;;;0.90;;
37047;SDS011;23227;48.780;9.210;2023-08-06T14:29:19;15.40;;;1.30;;
37047;SDS011;23227;48.780;9.210;2023-08-06T14:32:22;15.65;;;1.38;;
37047;SDS011;23227;48.780;9.210;2023-08-06T14:35:25;12.98;;;1.48;;
37047;SDS011;23227;48.780;9.210;2023-08-06T14:38:29;5.90;;;0.90;;
37047;SDS011;23227;48.780;9.210;2023-08-06T14:41:33;5.00;;;1.40;;
37047;SDS011;23227;48.780;9.210;2023-08-06T14:44:35;10.30;;;1.48;;
37047;SDS011;23227;48.780;9.210;2023-08-06T14:47:38;9.80;;;0.80;;
37047;SDS011;23227;48.780;9.210;2023-08-06T14:50:41;4.55;;;1.52;;
37047;SDS011;23227;48.780;9.210;2023-08-06T14:53:45;8.25;;;1.40;;
37047;SDS011;23227;48.780;9.210;2023-08-06T14:56:48;10.00;;;1.10;;
37047;SDS011;23227;48.780;9.210;2023-08-06T14:59:50;5.82;;;1.33;;
37047;SDS011;23227;48.780;9.210;2023-08-06T15:02:53;7.15;;;0.80;;
37047;SDS011;23227;48.780;9.210;2023-08-06T15:05:56;6.68;;;0.73;;
37047;SDS011;23227;48.780;9.210;2023-08-06T15:09:00;8.15;;;1.02;;
37047;SDS011;23227;48.780;9.210;2023-08-06T15:12:03;7.33;;;1.10;;
37047;SDS011;23227;48.780;9.210;2023-08-06T15:15:07;6.77;;;1.20;;
37047;SDS011;23227;48.780;9.210;2023-08-06T15:18:10;3.33;;;0.83;;
37047;SDS011;23227;48.780;9.210;2023-08-06T15:24:17;7.13;;;0.70;;
37047;SDS011;23227;48.780;9.210;2023-08-06T15:27:20;3.58;;;0.80;;
37047;SDS011;23227;48.780;9.210;2023-08-06T15:30:23;4.22;;;1.15;;
37047;SDS011;23227;48.780;9.210;2023-08-06T15:33:26;2.85;;;0.70;;
37047;SDS011;23227;48.780;9.210;2023-08-06T15:36:28;3.47;;;0.82;;
37047;SDS011;23227;48.780;9.210;2023-08-06T15:39:32;1.80;;;0.52;;
37047;SDS011;23227;48.780;9.210;2023-08-06T15:42:35;6.23;;;1.37;;
37047;SDS011;23227;48.780;9.210;2023-08-06T15:45:38;2.13;;;0.80;;
37047;SDS011;23227;48.780;9.210;2023-08-06T15:48:40;4.47;;;1.17;;
37047;SDS011;23227;48.780;9.210;2023-08-06T15:51:47;5.97;;;1.00;;
37047;SDS011;23227;48.780;9.210;2023-08-06T15:54:51;6.88;;;0.85;;
37047;SDS011;23227;48.780;9.210;2023-08-06T15:57:54;2.37;;;0.63;;
37047;SDS011;23227;48.780;9.210;2023-08-06T16:00:56;4.15;;;1.17;;
37047;SDS011;23227;48.780;9.210;2023-08-06T16:03:59;0.93;;;0.68;;
37047;SDS011;23227;48.780;9.210;2023-08-06T16:07:02;3.45;;;0.77;;
37047;SDS011;23227;48.780;9.210;2023-08-06T16:13:09;1.97;;;0.60;;
37047;SDS011;23227;48.780;9.210;2023-08-06T16:16:11;2.72;;;0.70;;
37047;SDS011;23227;48.780;9.210;2023-08-06T16:19:14;3.30;;;0.60;;
37047;SDS011;23227;48.780;9.210;2023-08-06T16:22:17;6.63;;;0.70;;
37047;SDS011;23227;48.780;9.210;2023-08-06T16:25:21;4.10;;;1.10;;
37047;SDS011;23227;48.780;9.210;2023-08-06T16:28:24;3.07;;;0.70;;
37047;SDS011;23227;48.780;9.210;2023-08-06T16:31:29;4.45;;;0.82;;
37047;SDS011;23227;48.780;9.210;2023-08-06T16:34:32;3.95;;;0.98;;
37047;SDS011;23227;48.780;9.210;2023-08-06T16:37:35;1.77;;;0.85;;
37047;SDS011;23227;48.780;9.210;2023-08-06T16:40:39;1.27;;;0.68;;
37047;SDS011;23227;48.780;9.210;2023-08-06T16:43:42;4.18;;;0.68;;
37047;SDS011;23227;48.780;9.210;2023-08-06T16:46:44;4.65;;;0.65;;
37047;SDS011;23227;48.780;9.210;2023-08-06T16:49:47;1.80;;;0.80;;
37047;SDS011;23227;48.780;9.210;2023-08-06T16:52:49;6.38;;;0.50;;
37047;SDS011;23227;48.780;9.210;2023-08-06T16:55:54;2.93;;;0.40;;
37047;SDS011;23227;48.780;9.210;2023-08-06T16:58:59;0.93;;;0.40;;
37047;SDS011;23227;48.780;9.210;2023-08-06T17:02:02;4.15;;;0.60;;
37047;SDS011;23227;48.780;9.210;2023-08-06T17:08:08;3.25;;;0.98;;
37047;SDS011;23227;48.780;9.210;2023-08-06T17:11:12;2.08;;;0.45;;
37047;SDS011;23227;48.780;9.210;2023-08-06T17:14:14;1.60;;;0.50;;
37047;SDS011;23227;48.780;9.210;2023-08-06T17:17:17;2.40;;;0.80;;
37047;SDS011;23227;48.780;9.210;2023-08-06T17:20:20;2.20;;;0.50;;
37047;SDS011;23227;48.780;9.210;2023-08-06T17:23:22;2.75;;;0.60;;
37047;SDS011;23227;48.780;9.210;2023-08-06T17:26:26;1.70;;;0.38;;
37047;SDS011;23227;48.780;9.210;2023-08-06T17:29:30;1.97;;;0.53;;
37047;SDS011;23227;48.780;9.210;2023-08-06T17:32:32;2.50;;;0.57;;
37047;SDS011;23227;48.780;9.210;2023-08-06T17:35:35;3.50;;;0.60;;
37047;SDS011;23227;48.780;9.210;2023-08-06T17:38:38;0.70;;;0.32;;
37047;SDS011;23227;48.780;9.210;2023-08-06T17:41:42;1.60;;;0.40;;
37047;SDS011;23227;48.780;9.210;2023-08-06T17:44:47;4.33;;;1.00;;
37047;SDS011;23227;48.780;9.210;2023-08-06T17:47:50;1.40;;;0.52;;
37047;SDS011;23227;48.780;9.210;2023-08-06T17:50:53;1.67;;;0.50;;
37047;SDS011;23227;48.780;9.210;2023-08-06T17:53:55;2.10;;;0.40;;
37047;SDS011;23227;48.780;9.210;2023-08-06T17:56:59;3.28;;;0.60;;
37047;SDS011;23227;48.780;9.210;2023-08-06T18:00:02;3.83;;;0.50;;
37047;SDS011;23227;48.780;9.210;2023-08-06T18:03:07;5.23;;;0.63;;
37047;SDS011;23227;48.780;9.210;2023-08-06T18:06:09;2.63;;;0.57;;
37047;SDS011;23227;48.780;9.210;2023-08-06T18:12:16;2.70;;;0.63;;
37047;SDS011;23227;48.780;9.210;2023-08-06T18:15:19;5.27;;;0.80;;
37047;SDS011;23227;48.780;9.210;2023-08-06T18:18:22;4.25;;;0.63;;
37047;SDS011;23227;48.780;9.210;2023-08-06T18:21:24;3.95;;;0.40;;
37047;SDS011;23227;48.780;9.210;2023-08-06T18:24:27;4.22;;;0.63;;
37047;SDS011;23227;48.780;9.210;2023-08-06T18:27:31;3.25;;;0.90;;
37047;SDS011;23227;48.780;9.210;2023-08-06T18:30:34;1.77;;;0.67;;
37047;SDS011;23227;48.780;9.210;2023-08-06T18:33:37;3.40;;;0.65;;
37047;SDS011;23227;48.780;9.210;2023-08-06T18:39:42;2.50;;;0.60;;
37047;SDS011;23227;48.780;9.210;2023-08-06T18:42:46;3.20;;;0.57;;
37047;SDS011;23227;48.780;9.210;2023-08-06T18:45:49;1.50;;;0.50;;
37047;SDS011;23227;48.780;9.210;2023-08-06T18:48:52;3.33;;;0.70;;
37047;SDS011;23227;48.780;9.210;2023-08-06T18:51:54;3.45;;;0.65;;
37047;SDS011;23227;48.780;9.210;2023-08-06T18:54:57;4.38;;;0.80;;
37047;SDS011;23227;48.780;9.210;2023-08-06T18:58:01;0.75;;;0.43;;
37047;SDS011;23227;48.780;9.210;2023-08-06T19:01:04;6.43;;;0.70;;
37047;SDS011;23227;48.780;9.210;2023-08-06T19:04:07;4.60;;;0.57;;
37047;SDS011;23227;48.780;9.210;2023-08-06T19:07:10;1.75;;;0.60;;
37047;SDS011;23227;48.780;9.210;2023-08-06T19:10:12;1.63;;;0.60;;
37047;SDS011;23227;48.780;9.210;2023-08-06T19:13:16;3.17;;;0.68;;
37047;SDS011;23227;48.780;9.210;2023-08-06T19:16:19;3.13;;;0.70;;
37047;SDS011;23227;48.780;9.210;2023-08-06T19:19:22;2.17;;;0.60;;
37047;SDS011;23227;48.780;9.210;2023-08-06T19:22:24;1.45;;;0.57;;